Pagrindinis puslapis
METAR-TAF:

METAR-TAF

Oro uostai :

Ahvazas, Iranas

platuma: 31-20N, ilguma: 048-40E, Aukštis: 20 m

Dabartinis oras

Ataskaita buvo paskelbta 24 minutes, ne 18:30 UTC
Vėjas 4 kt iš Šiaurės Vakarų
Temperatūra 26°C
Drėgmė 34%
Slėgis 1006 hPa
Matomumas 10 km arba daugiau
Mažai debesys ne aukštis 3500 ft, Liūtiniai kamuoliniai debesys.
Mažai debesys ne aukštis 4000 ft

METAR: OIAW 131830Z 32004KT 9999 FEW035CB FEW040 26/09 Q1006

Laikas: 23:24 (18:54 UTC)

Prognozė

Ataskaita buvo paskelbta 1 valandą ir 4 minutes, ne 17:50 UTC
Prognozė galioja nuo 13 metu 18 UTC su 14 metu 24 UTC
Vėjas 6 kt iš Vakarų/Šiaurės Vakarų
Matomumas: 7000 m
Mažai debesys ne aukštis 3500 ft
Išsisklaidę debesys ne aukštis 10000 ft

TAF: OIAW 131750Z 1318/1424 30006KT 7000 FEW035 SCT100

Orai ataskaitas ir orų prognozės (METAR, TAF).

turimą stotys yra geltonos ir raudonos taškus žemėlapyje.

Perkelti pele per norėdami pamatyti stoties vardą.

Tada spustelėkite, norėdami matyti oro stebėjimo ir prognozės.

Norėdami pakeisti žemėlapį: spustelėkite ant žalios mygtukų su juodo kryžiaus žemyn,; žalią mygtuką su brūkšneliu, jei norite nutolinti; arba žalių rodyklių gretimoms žemėlapius.


METAR-TAF: